sensor_id;sensor_type;location;lat;lon;timestamp;temperature;humidity
3300;DHT22;1662;49.310;8.134;2022-08-06T00:02:30;21.10;99.90
3300;DHT22;1662;49.310;8.134;2022-08-06T00:04:57;21.00;99.90
3300;DHT22;1662;49.310;8.134;2022-08-06T00:07:23;21.00;99.90
3300;DHT22;1662;49.310;8.134;2022-08-06T00:09:49;20.90;99.90
3300;DHT22;1662;49.310;8.134;2022-08-06T00:12:15;20.90;99.90
3300;DHT22;1662;49.310;8.134;2022-08-06T00:14:43;20.80;99.90
3300;DHT22;1662;49.310;8.134;2022-08-06T00:17:08;20.90;99.90
3300;DHT22;1662;49.310;8.134;2022-08-06T00:19:34;20.80;99.90
3300;DHT22;1662;49.310;8.134;2022-08-06T00:21:59;20.80;99.90
3300;DHT22;1662;49.310;8.134;2022-08-06T00:24:25;20.80;99.90
3300;DHT22;1662;49.310;8.134;2022-08-06T00:26:51;20.80;99.90
3300;DHT22;1662;49.310;8.134;2022-08-06T00:29:16;20.70;99.90
3300;DHT22;1662;49.310;8.134;2022-08-06T00:31:44;20.70;99.90
3300;DHT22;1662;49.310;8.134;2022-08-06T00:34:10;20.70;99.90
3300;DHT22;1662;49.310;8.134;2022-08-06T00:36:36;20.70;99.90
3300;DHT22;1662;49.310;8.134;2022-08-06T00:39:04;20.70;99.90
3300;DHT22;1662;49.310;8.134;2022-08-06T00:41:30;20.50;99.90
3300;DHT22;1662;49.310;8.134;2022-08-06T00:43:57;20.50;99.90
3300;DHT22;1662;49.310;8.134;2022-08-06T00:46:23;20.50;99.90
3300;DHT22;1662;49.310;8.134;2022-08-06T00:48:49;20.50;99.90
3300;DHT22;1662;49.310;8.134;2022-08-06T00:51:15;20.50;99.90
3300;DHT22;1662;49.310;8.134;2022-08-06T00:53:40;20.50;99.90
3300;DHT22;1662;49.310;8.134;2022-08-06T00:56:06;20.50;99.90
3300;DHT22;1662;49.310;8.134;2022-08-06T00:58:35;20.40;99.90
3300;DHT22;1662;49.310;8.134;2022-08-06T01:01:01;20.40;99.90
3300;DHT22;1662;49.310;8.134;2022-08-06T01:03:28;20.40;99.90
3300;DHT22;1662;49.310;8.134;2022-08-06T01:05:55;20.40;99.90
3300;DHT22;1662;49.310;8.134;2022-08-06T01:08:20;20.40;99.90
3300;DHT22;1662;49.310;8.134;2022-08-06T01:10:48;20.30;99.90
3300;DHT22;1662;49.310;8.134;2022-08-06T01:13:16;20.30;99.90
3300;DHT22;1662;49.310;8.134;2022-08-06T01:15:51;20.30;99.90
3300;DHT22;1662;49.310;8.134;2022-08-06T01:18:30;20.30;99.90
3300;DHT22;1662;49.310;8.134;2022-08-06T01:26:56;20.20;99.90
3300;DHT22;1662;49.310;8.134;2022-08-06T01:29:29;20.20;99.90
3300;DHT22;1662;49.310;8.134;2022-08-06T01:32:04;20.30;99.90
3300;DHT22;1662;49.310;8.134;2022-08-06T01:34:42;20.20;99.90
3300;DHT22;1662;49.310;8.134;2022-08-06T01:39:50;20.10;99.90
3300;DHT22;1662;49.310;8.134;2022-08-06T01:42:19;20.20;99.90
3300;DHT22;1662;49.310;8.134;2022-08-06T01:44:47;20.10;99.90
3300;DHT22;1662;49.310;8.134;2022-08-06T01:47:16;20.10;99.90
3300;DHT22;1662;49.310;8.134;2022-08-06T01:49:52;20.10;99.90
3300;DHT22;1662;49.310;8.134;2022-08-06T01:52:19;20.10;99.90
3300;DHT22;1662;49.310;8.134;2022-08-06T01:54:49;20.00;99.90
3300;DHT22;1662;49.310;8.134;2022-08-06T01:57:18;20.00;99.90
3300;DHT22;1662;49.310;8.134;2022-08-06T01:59:48;19.90;99.90
3300;DHT22;1662;49.310;8.134;2022-08-06T02:02:19;19.90;99.90
3300;DHT22;1662;49.310;8.134;2022-08-06T02:04:48;19.90;99.90
3300;DHT22;1662;49.310;8.134;2022-08-06T02:07:16;19.90;99.90
3300;DHT22;1662;49.310;8.134;2022-08-06T02:09:44;19.90;99.90
3300;DHT22;1662;49.310;8.134;2022-08-06T02:12:13;19.90;99.90
3300;DHT22;1662;49.310;8.134;2022-08-06T02:14:52;19.90;99.90
3300;DHT22;1662;49.310;8.134;2022-08-06T02:17:21;20.00;99.90
3300;DHT22;1662;49.310;8.134;2022-08-06T02:19:50;19.90;99.90
3300;DHT22;1662;49.310;8.134;2022-08-06T02:22:19;19.90;99.90
3300;DHT22;1662;49.310;8.134;2022-08-06T02:24:47;19.90;99.90
3300;DHT22;1662;49.310;8.134;2022-08-06T02:27:16;19.90;99.90
3300;DHT22;1662;49.310;8.134;2022-08-06T02:29:44;19.90;99.90
3300;DHT22;1662;49.310;8.134;2022-08-06T02:32:13;19.80;99.90
3300;DHT22;1662;49.310;8.134;2022-08-06T02:34:40;19.80;99.90
3300;DHT22;1662;49.310;8.134;2022-08-06T02:39:46;19.80;99.90
3300;DHT22;1662;49.310;8.134;2022-08-06T02:42:20;19.80;99.90
3300;DHT22;1662;49.310;8.134;2022-08-06T02:45:02;19.80;99.90
3300;DHT22;1662;49.310;8.134;2022-08-06T02:50:28;19.80;99.90
3300;DHT22;1662;49.310;8.134;2022-08-06T02:53:01;19.80;99.90
3300;DHT22;1662;49.310;8.134;2022-08-06T02:55:32;19.80;99.90
3300;DHT22;1662;49.310;8.134;2022-08-06T02:58:12;19.70;99.90
3300;DHT22;1662;49.310;8.134;2022-08-06T03:00:44;19.60;99.90
3300;DHT22;1662;49.310;8.134;2022-08-06T03:03:10;19.60;99.90
3300;DHT22;1662;49.310;8.134;2022-08-06T03:05:42;19.60;99.90
3300;DHT22;1662;49.310;8.134;2022-08-06T03:08:10;19.60;99.90
3300;DHT22;1662;49.310;8.134;2022-08-06T03:10:36;19.50;99.90
3300;DHT22;1662;49.310;8.134;2022-08-06T03:13:03;19.50;99.90
3300;DHT22;1662;49.310;8.134;2022-08-06T03:15:33;19.50;99.90
3300;DHT22;1662;49.310;8.134;2022-08-06T03:18:02;19.40;99.90
3300;DHT22;1662;49.310;8.134;2022-08-06T03:20:30;19.30;99.90
3300;DHT22;1662;49.310;8.134;2022-08-06T03:22:58;19.30;99.90
3300;DHT22;1662;49.310;8.134;2022-08-06T03:25:26;19.30;99.90
3300;DHT22;1662;49.310;8.134;2022-08-06T03:27:53;19.40;99.90
3300;DHT22;1662;49.310;8.134;2022-08-06T03:30:20;19.40;99.90
3300;DHT22;1662;49.310;8.134;2022-08-06T03:32:49;19.40;99.90
3300;DHT22;1662;49.310;8.134;2022-08-06T03:35:15;19.50;99.90
3300;DHT22;1662;49.310;8.134;2022-08-06T03:37:45;19.50;99.90
3300;DHT22;1662;49.310;8.134;2022-08-06T03:40:13;19.60;99.90
3300;DHT22;1662;49.310;8.134;2022-08-06T03:42:40;19.60;99.90
3300;DHT22;1662;49.310;8.134;2022-08-06T03:45:08;19.60;99.90
3300;DHT22;1662;49.310;8.134;2022-08-06T03:47:41;19.50;99.90
3300;DHT22;1662;49.310;8.134;2022-08-06T03:52:37;19.20;99.90
3300;DHT22;1662;49.310;8.134;2022-08-06T03:55:08;19.00;99.90
3300;DHT22;1662;49.310;8.134;2022-08-06T03:57:39;19.10;99.90
3300;DHT22;1662;49.310;8.134;2022-08-06T04:00:08;19.10;99.90
3300;DHT22;1662;49.310;8.134;2022-08-06T04:02:42;19.10;99.90
3300;DHT22;1662;49.310;8.134;2022-08-06T04:05:10;19.00;99.90
3300;DHT22;1662;49.310;8.134;2022-08-06T04:07:37;18.90;99.90
3300;DHT22;1662;49.310;8.134;2022-08-06T04:10:04;18.90;99.90
3300;DHT22;1662;49.310;8.134;2022-08-06T04:12:30;18.80;99.90
3300;DHT22;1662;49.310;8.134;2022-08-06T04:14:56;18.80;99.90
3300;DHT22;1662;49.310;8.134;2022-08-06T04:17:23;18.70;99.90
3300;DHT22;1662;49.310;8.134;2022-08-06T04:19:51;18.70;99.90
3300;DHT22;1662;49.310;8.134;2022-08-06T04:22:17;18.60;99.90
3300;DHT22;1662;49.310;8.134;2022-08-06T04:24:43;18.60;99.90
3300;DHT22;1662;49.310;8.134;2022-08-06T04:27:10;18.60;99.90
3300;DHT22;1662;49.310;8.134;2022-08-06T04:29:37;18.70;99.90
3300;DHT22;1662;49.310;8.134;2022-08-06T04:32:04;18.60;99.90
3300;DHT22;1662;49.310;8.134;2022-08-06T04:34:32;18.50;99.90
3300;DHT22;1662;49.310;8.134;2022-08-06T04:37:00;18.60;99.90
3300;DHT22;1662;49.310;8.134;2022-08-06T04:39:27;18.60;99.90
3300;DHT22;1662;49.310;8.134;2022-08-06T04:41:53;18.50;99.90
3300;DHT22;1662;49.310;8.134;2022-08-06T04:44:20;18.60;99.90
3300;DHT22;1662;49.310;8.134;2022-08-06T04:46:46;18.60;99.90
3300;DHT22;1662;49.310;8.134;2022-08-06T04:49:15;18.60;99.90
3300;DHT22;1662;49.310;8.134;2022-08-06T04:51:45;18.60;99.90
3300;DHT22;1662;49.310;8.134;2022-08-06T04:54:12;18.60;99.90
3300;DHT22;1662;49.310;8.134;2022-08-06T04:56:38;18.70;99.90
3300;DHT22;1662;49.310;8.134;2022-08-06T04:59:05;18.70;99.90
3300;DHT22;1662;49.310;8.134;2022-08-06T05:01:30;18.60;99.90
3300;DHT22;1662;49.310;8.134;2022-08-06T05:03:56;18.60;99.90
3300;DHT22;1662;49.310;8.134;2022-08-06T05:06:33;18.50;99.90
3300;DHT22;1662;49.310;8.134;2022-08-06T05:09:05;18.40;99.90
3300;DHT22;1662;49.310;8.134;2022-08-06T05:11:38;18.50;99.90
3300;DHT22;1662;49.310;8.134;2022-08-06T05:14:12;18.70;99.90
3300;DHT22;1662;49.310;8.134;2022-08-06T05:16:41;18.80;99.90
3300;DHT22;1662;49.310;8.134;2022-08-06T05:19:16;18.80;99.90
3300;DHT22;1662;49.310;8.134;2022-08-06T05:21:43;18.80;99.90
3300;DHT22;1662;49.310;8.134;2022-08-06T05:24:13;18.70;99.90
3300;DHT22;1662;49.310;8.134;2022-08-06T05:26:39;18.80;99.90
3300;DHT22;1662;49.310;8.134;2022-08-06T05:29:04;18.80;99.90
3300;DHT22;1662;49.310;8.134;2022-08-06T05:31:37;18.80;99.90
3300;DHT22;1662;49.310;8.134;2022-08-06T05:34:09;18.80;99.90
3300;DHT22;1662;49.310;8.134;2022-08-06T05:36:35;18.90;99.90
3300;DHT22;1662;49.310;8.134;2022-08-06T05:39:03;19.00;99.90
3300;DHT22;1662;49.310;8.134;2022-08-06T05:41:29;18.90;99.90
3300;DHT22;1662;49.310;8.134;2022-08-06T05:43:55;18.90;99.90
3300;DHT22;1662;49.310;8.134;2022-08-06T05:46:22;19.00;99.90
3300;DHT22;1662;49.310;8.134;2022-08-06T05:49:15;19.10;99.90
3300;DHT22;1662;49.310;8.134;2022-08-06T05:52:37;19.30;99.90
3300;DHT22;1662;49.310;8.134;2022-08-06T05:55:06;19.30;99.90
3300;DHT22;1662;49.310;8.134;2022-08-06T05:57:38;19.20;99.90
3300;DHT22;1662;49.310;8.134;2022-08-06T06:00:07;19.20;99.90
3300;DHT22;1662;49.310;8.134;2022-08-06T06:02:43;19.30;99.90
3300;DHT22;1662;49.310;8.134;2022-08-06T06:05:10;19.20;99.90
3300;DHT22;1662;49.310;8.134;2022-08-06T06:07:36;19.20;99.90
3300;DHT22;1662;49.310;8.134;2022-08-06T06:10:04;19.30;99.90
3300;DHT22;1662;49.310;8.134;2022-08-06T06:12:31;19.40;99.90
3300;DHT22;1662;49.310;8.134;2022-08-06T06:14:58;19.50;99.90
3300;DHT22;1662;49.310;8.134;2022-08-06T06:23:09;19.40;99.90
3300;DHT22;1662;49.310;8.134;2022-08-06T06:26:03;19.50;99.90
3300;DHT22;1662;49.310;8.134;2022-08-06T06:28:57;19.50;99.90
3300;DHT22;1662;49.310;8.134;2022-08-06T06:34:07;19.60;99.90
3300;DHT22;1662;49.310;8.134;2022-08-06T06:37:03;19.60;99.90
3300;DHT22;1662;49.310;8.134;2022-08-06T06:39:36;19.60;99.90
3300;DHT22;1662;49.310;8.134;2022-08-06T06:42:46;19.80;99.90
3300;DHT22;1662;49.310;8.134;2022-08-06T06:45:18;19.80;99.90
3300;DHT22;1662;49.310;8.134;2022-08-06T06:47:49;19.80;99.90
3300;DHT22;1662;49.310;8.134;2022-08-06T06:50:23;19.90;99.90
3300;DHT22;1662;49.310;8.134;2022-08-06T06:52:52;19.80;99.90
3300;DHT22;1662;49.310;8.134;2022-08-06T06:55:42;19.80;99.90
3300;DHT22;1662;49.310;8.134;2022-08-06T06:58:17;19.80;99.90
3300;DHT22;1662;49.310;8.134;2022-08-06T07:00:44;19.80;99.90
3300;DHT22;1662;49.310;8.134;2022-08-06T07:03:11;19.80;99.90
3300;DHT22;1662;49.310;8.134;2022-08-06T07:05:40;19.80;99.90
3300;DHT22;1662;49.310;8.134;2022-08-06T07:08:09;19.80;99.90
3300;DHT22;1662;49.310;8.134;2022-08-06T07:10:36;19.90;99.90
3300;DHT22;1662;49.310;8.134;2022-08-06T07:13:04;20.00;99.90
3300;DHT22;1662;49.310;8.134;2022-08-06T07:15:31;20.10;99.90
3300;DHT22;1662;49.310;8.134;2022-08-06T07:17:58;20.10;99.90
3300;DHT22;1662;49.310;8.134;2022-08-06T07:20:27;20.10;99.90
3300;DHT22;1662;49.310;8.134;2022-08-06T07:22:55;20.10;99.90
3300;DHT22;1662;49.310;8.134;2022-08-06T07:25:22;20.10;99.90
3300;DHT22;1662;49.310;8.134;2022-08-06T07:27:50;20.30;99.90
3300;DHT22;1662;49.310;8.134;2022-08-06T07:30:18;20.40;99.90
3300;DHT22;1662;49.310;8.134;2022-08-06T07:32:45;20.50;99.90
3300;DHT22;1662;49.310;8.134;2022-08-06T07:35:12;20.50;99.90
3300;DHT22;1662;49.310;8.134;2022-08-06T07:37:44;20.60;99.90
3300;DHT22;1662;49.310;8.134;2022-08-06T07:40:22;20.70;99.90
3300;DHT22;1662;49.310;8.134;2022-08-06T07:42:53;20.70;99.90
3300;DHT22;1662;49.310;8.134;2022-08-06T07:45:26;20.70;99.90
3300;DHT22;1662;49.310;8.134;2022-08-06T07:47:54;20.80;99.90
3300;DHT22;1662;49.310;8.134;2022-08-06T07:50:22;20.90;99.90
3300;DHT22;1662;49.310;8.134;2022-08-06T07:52:48;20.90;99.90
3300;DHT22;1662;49.310;8.134;2022-08-06T07:55:15;20.90;99.90
3300;DHT22;1662;49.310;8.134;2022-08-06T07:57:45;21.00;99.90
3300;DHT22;1662;49.310;8.134;2022-08-06T08:00:11;21.00;99.90
3300;DHT22;1662;49.310;8.134;2022-08-06T08:02:37;21.10;99.90
3300;DHT22;1662;49.310;8.134;2022-08-06T08:05:04;21.20;99.90
3300;DHT22;1662;49.310;8.134;2022-08-06T08:07:49;21.30;99.90
3300;DHT22;1662;49.310;8.134;2022-08-06T08:10:17;21.20;99.90
3300;DHT22;1662;49.310;8.134;2022-08-06T08:12:44;21.30;99.90
3300;DHT22;1662;49.310;8.134;2022-08-06T08:15:10;21.30;99.90
3300;DHT22;1662;49.310;8.134;2022-08-06T08:17:36;21.40;99.90
3300;DHT22;1662;49.310;8.134;2022-08-06T08:20:06;21.40;99.90
3300;DHT22;1662;49.310;8.134;2022-08-06T08:22:35;21.50;99.90
3300;DHT22;1662;49.310;8.134;2022-08-06T08:25:00;21.60;99.90
3300;DHT22;1662;49.310;8.134;2022-08-06T08:27:26;21.60;99.90
3300;DHT22;1662;49.310;8.134;2022-08-06T08:29:52;21.70;99.90
3300;DHT22;1662;49.310;8.134;2022-08-06T08:32:18;21.80;99.90
3300;DHT22;1662;49.310;8.134;2022-08-06T08:34:46;21.90;99.90
3300;DHT22;1662;49.310;8.134;2022-08-06T08:37:12;22.00;99.90
3300;DHT22;1662;49.310;8.134;2022-08-06T08:39:38;22.00;99.90
3300;DHT22;1662;49.310;8.134;2022-08-06T08:42:04;22.10;99.90
3300;DHT22;1662;49.310;8.134;2022-08-06T08:44:35;22.20;99.90
3300;DHT22;1662;49.310;8.134;2022-08-06T08:47:01;22.30;99.90
3300;DHT22;1662;49.310;8.134;2022-08-06T08:49:40;22.30;99.90
3300;DHT22;1662;49.310;8.134;2022-08-06T08:52:08;22.30;99.90
3300;DHT22;1662;49.310;8.134;2022-08-06T08:54:36;22.30;99.90
3300;DHT22;1662;49.310;8.134;2022-08-06T08:57:03;22.40;99.90
3300;DHT22;1662;49.310;8.134;2022-08-06T08:59:29;22.50;99.90
3300;DHT22;1662;49.310;8.134;2022-08-06T09:01:57;22.50;99.90
3300;DHT22;1662;49.310;8.134;2022-08-06T09:04:23;22.60;99.90
3300;DHT22;1662;49.310;8.134;2022-08-06T09:06:49;22.80;99.90
3300;DHT22;1662;49.310;8.134;2022-08-06T09:09:15;22.80;99.90
3300;DHT22;1662;49.310;8.134;2022-08-06T09:11:41;22.90;99.90
3300;DHT22;1662;49.310;8.134;2022-08-06T09:14:09;23.00;99.90
3300;DHT22;1662;49.310;8.134;2022-08-06T09:16:35;23.10;99.90
3300;DHT22;1662;49.310;8.134;2022-08-06T09:19:03;23.10;99.90
3300;DHT22;1662;49.310;8.134;2022-08-06T09:21:30;23.20;99.90
3300;DHT22;1662;49.310;8.134;2022-08-06T09:23:59;23.20;99.90
3300;DHT22;1662;49.310;8.134;2022-08-06T09:26:25;23.20;99.90
3300;DHT22;1662;49.310;8.134;2022-08-06T09:28:51;23.40;99.90
3300;DHT22;1662;49.310;8.134;2022-08-06T09:31:19;23.50;99.90
3300;DHT22;1662;49.310;8.134;2022-08-06T09:34:05;23.60;99.90
3300;DHT22;1662;49.310;8.134;2022-08-06T09:36:42;23.70;99.90
3300;DHT22;1662;49.310;8.134;2022-08-06T09:39:09;23.80;99.10
3300;DHT22;1662;49.310;8.134;2022-08-06T09:41:48;23.80;98.80
3300;DHT22;1662;49.310;8.134;2022-08-06T09:44:14;23.90;98.40
3300;DHT22;1662;49.310;8.134;2022-08-06T09:46:47;24.00;97.40
3300;DHT22;1662;49.310;8.134;2022-08-06T09:49:15;24.10;98.00
3300;DHT22;1662;49.310;8.134;2022-08-06T09:51:42;24.20;96.80
3300;DHT22;1662;49.310;8.134;2022-08-06T09:54:10;24.20;96.50
3300;DHT22;1662;49.310;8.134;2022-08-06T09:56:38;24.30;96.20
3300;DHT22;1662;49.310;8.134;2022-08-06T09:59:07;24.40;95.70
3300;DHT22;1662;49.310;8.134;2022-08-06T10:01:42;24.40;95.50
3300;DHT22;1662;49.310;8.134;2022-08-06T10:06:54;24.60;94.80
3300;DHT22;1662;49.310;8.134;2022-08-06T10:09:21;24.70;94.10
3300;DHT22;1662;49.310;8.134;2022-08-06T10:11:47;24.90;94.60
3300;DHT22;1662;49.310;8.134;2022-08-06T10:14:23;24.90;94.40
3300;DHT22;1662;49.310;8.134;2022-08-06T10:19:34;25.20;93.50
3300;DHT22;1662;49.310;8.134;2022-08-06T10:22:21;25.20;93.10
3300;DHT22;1662;49.310;8.134;2022-08-06T10:24:49;25.40;92.20
3300;DHT22;1662;49.310;8.134;2022-08-06T10:27:29;25.50;91.60
3300;DHT22;1662;49.310;8.134;2022-08-06T10:30:03;25.50;91.80
3300;DHT22;1662;49.310;8.134;2022-08-06T10:35:20;25.70;90.40
3300;DHT22;1662;49.310;8.134;2022-08-06T10:37:52;25.70;88.70
3300;DHT22;1662;49.310;8.134;2022-08-06T10:40:22;25.70;88.40
3300;DHT22;1662;49.310;8.134;2022-08-06T10:42:49;25.80;88.90
3300;DHT22;1662;49.310;8.134;2022-08-06T10:45:17;25.90;89.60
3300;DHT22;1662;49.310;8.134;2022-08-06T10:47:45;26.20;87.00
3300;DHT22;1662;49.310;8.134;2022-08-06T10:50:14;26.40;85.80
3300;DHT22;1662;49.310;8.134;2022-08-06T10:52:42;26.50;84.70
3300;DHT22;1662;49.310;8.134;2022-08-06T10:55:08;26.40;84.70
3300;DHT22;1662;49.310;8.134;2022-08-06T10:57:39;26.50;83.10
3300;DHT22;1662;49.310;8.134;2022-08-06T11:00:10;26.70;81.10
3300;DHT22;1662;49.310;8.134;2022-08-06T11:03:17;26.70;83.00
3300;DHT22;1662;49.310;8.134;2022-08-06T11:05:50;26.90;80.20
3300;DHT22;1662;49.310;8.134;2022-08-06T11:16:25;27.20;79.50
3300;DHT22;1662;49.310;8.134;2022-08-06T11:21:41;27.40;76.90
3300;DHT22;1662;49.310;8.134;2022-08-06T11:24:07;27.40;75.30
3300;DHT22;1662;49.310;8.134;2022-08-06T11:26:37;27.40;73.60
3300;DHT22;1662;49.310;8.134;2022-08-06T11:29:08;27.50;75.80
3300;DHT22;1662;49.310;8.134;2022-08-06T11:34:10;27.80;74.00
3300;DHT22;1662;49.310;8.134;2022-08-06T11:36:48;27.90;73.10
3300;DHT22;1662;49.310;8.134;2022-08-06T11:39:15;28.00;71.30
3300;DHT22;1662;49.310;8.134;2022-08-06T11:42:09;28.00;71.40
3300;DHT22;1662;49.310;8.134;2022-08-06T11:44:34;28.10;72.30
3300;DHT22;1662;49.310;8.134;2022-08-06T11:49:48;28.40;69.10
3300;DHT22;1662;49.310;8.134;2022-08-06T11:57:28;28.80;65.80
3300;DHT22;1662;49.310;8.134;2022-08-06T12:07:39;28.90;66.10
3300;DHT22;1662;49.310;8.134;2022-08-06T12:17:40;29.10;64.00
3300;DHT22;1662;49.310;8.134;2022-08-06T12:20:07;29.10;60.90
3300;DHT22;1662;49.310;8.134;2022-08-06T12:22:35;29.20;62.00
3300;DHT22;1662;49.310;8.134;2022-08-06T12:25:06;29.20;61.90
3300;DHT22;1662;49.310;8.134;2022-08-06T12:27:34;29.30;61.80
3300;DHT22;1662;49.310;8.134;2022-08-06T12:30:01;29.30;63.30
3300;DHT22;1662;49.310;8.134;2022-08-06T12:32:33;29.40;61.80
3300;DHT22;1662;49.310;8.134;2022-08-06T12:35:09;29.40;60.50
3300;DHT22;1662;49.310;8.134;2022-08-06T12:37:45;29.50;62.50
3300;DHT22;1662;49.310;8.134;2022-08-06T12:40:19;29.70;63.00
3300;DHT22;1662;49.310;8.134;2022-08-06T12:43:13;29.90;61.50
3300;DHT22;1662;49.310;8.134;2022-08-06T12:45:43;30.10;58.60
3300;DHT22;1662;49.310;8.134;2022-08-06T12:48:11;30.20;59.70
3300;DHT22;1662;49.310;8.134;2022-08-06T12:50:42;30.30;59.30
3300;DHT22;1662;49.310;8.134;2022-08-06T12:53:13;30.50;57.20
3300;DHT22;1662;49.310;8.134;2022-08-06T12:58:08;30.50;57.10
3300;DHT22;1662;49.310;8.134;2022-08-06T13:00:38;30.50;57.20
3300;DHT22;1662;49.310;8.134;2022-08-06T13:03:06;30.50;57.10
3300;DHT22;1662;49.310;8.134;2022-08-06T13:05:33;30.60;56.30
3300;DHT22;1662;49.310;8.134;2022-08-06T13:08:00;30.70;58.30
3300;DHT22;1662;49.310;8.134;2022-08-06T13:10:28;30.70;56.50
3300;DHT22;1662;49.310;8.134;2022-08-06T13:12:58;31.00;56.00
3300;DHT22;1662;49.310;8.134;2022-08-06T13:15:27;31.00;55.40
3300;DHT22;1662;49.310;8.134;2022-08-06T13:20:42;30.90;55.40
3300;DHT22;1662;49.310;8.134;2022-08-06T13:23:09;30.90;55.60
3300;DHT22;1662;49.310;8.134;2022-08-06T13:25:48;30.90;54.00
3300;DHT22;1662;49.310;8.134;2022-08-06T13:28:18;30.80;54.70
3300;DHT22;1662;49.310;8.134;2022-08-06T13:30:45;30.90;55.20
3300;DHT22;1662;49.310;8.134;2022-08-06T13:33:22;31.20;55.60
3300;DHT22;1662;49.310;8.134;2022-08-06T13:36:05;31.50;54.50
3300;DHT22;1662;49.310;8.134;2022-08-06T13:38:32;31.50;53.60
3300;DHT22;1662;49.310;8.134;2022-08-06T13:40:58;31.60;55.30
3300;DHT22;1662;49.310;8.134;2022-08-06T13:43:43;31.60;54.50
3300;DHT22;1662;49.310;8.134;2022-08-06T13:46:15;31.80;53.10
3300;DHT22;1662;49.310;8.134;2022-08-06T13:48:44;31.80;53.90
3300;DHT22;1662;49.310;8.134;2022-08-06T13:51:11;31.90;52.20
3300;DHT22;1662;49.310;8.134;2022-08-06T13:53:39;31.90;52.20
3300;DHT22;1662;49.310;8.134;2022-08-06T13:56:08;31.90;52.00
3300;DHT22;1662;49.310;8.134;2022-08-06T13:58:34;31.80;52.10
3300;DHT22;1662;49.310;8.134;2022-08-06T14:01:01;31.90;53.20
3300;DHT22;1662;49.310;8.134;2022-08-06T14:03:28;32.00;53.10
3300;DHT22;1662;49.310;8.134;2022-08-06T14:05:54;32.00;52.50
3300;DHT22;1662;49.310;8.134;2022-08-06T14:08:20;32.20;52.40
3300;DHT22;1662;49.310;8.134;2022-08-06T14:10:45;32.20;51.90
3300;DHT22;1662;49.310;8.134;2022-08-06T14:13:11;32.30;51.90
3300;DHT22;1662;49.310;8.134;2022-08-06T14:15:48;32.20;51.20
3300;DHT22;1662;49.310;8.134;2022-08-06T14:18:15;32.50;51.90
3300;DHT22;1662;49.310;8.134;2022-08-06T14:20:41;32.50;51.60
3300;DHT22;1662;49.310;8.134;2022-08-06T14:23:08;32.50;53.00
3300;DHT22;1662;49.310;8.134;2022-08-06T14:25:34;32.50;51.40
3300;DHT22;1662;49.310;8.134;2022-08-06T14:28:00;32.30;51.40
3300;DHT22;1662;49.310;8.134;2022-08-06T14:30:28;31.80;51.40
3300;DHT22;1662;49.310;8.134;2022-08-06T14:32:54;32.00;51.90
3300;DHT22;1662;49.310;8.134;2022-08-06T14:35:20;32.10;51.90
3300;DHT22;1662;49.310;8.134;2022-08-06T14:37:46;32.60;52.50
3300;DHT22;1662;49.310;8.134;2022-08-06T14:40:14;32.80;51.70
3300;DHT22;1662;49.310;8.134;2022-08-06T14:42:41;33.00;50.80
3300;DHT22;1662;49.310;8.134;2022-08-06T14:45:25;32.80;51.40
3300;DHT22;1662;49.310;8.134;2022-08-06T14:47:51;32.70;51.60
3300;DHT22;1662;49.310;8.134;2022-08-06T14:50:19;32.80;51.50
3300;DHT22;1662;49.310;8.134;2022-08-06T14:52:45;32.90;51.30
3300;DHT22;1662;49.310;8.134;2022-08-06T14:55:12;32.90;51.00
3300;DHT22;1662;49.310;8.134;2022-08-06T14:57:39;33.00;51.10
3300;DHT22;1662;49.310;8.134;2022-08-06T15:00:07;33.20;51.30
3300;DHT22;1662;49.310;8.134;2022-08-06T15:02:33;33.10;51.90
3300;DHT22;1662;49.310;8.134;2022-08-06T15:05:01;33.10;50.90
3300;DHT22;1662;49.310;8.134;2022-08-06T15:07:27;33.00;51.10
3300;DHT22;1662;49.310;8.134;2022-08-06T15:09:53;33.10;51.60
3300;DHT22;1662;49.310;8.134;2022-08-06T15:12:19;33.30;50.20
3300;DHT22;1662;49.310;8.134;2022-08-06T15:14:47;33.10;50.10
3300;DHT22;1662;49.310;8.134;2022-08-06T15:17:12;32.80;50.40
3300;DHT22;1662;49.310;8.134;2022-08-06T15:19:38;32.70;50.70
3300;DHT22;1662;49.310;8.134;2022-08-06T15:22:06;32.80;50.10
3300;DHT22;1662;49.310;8.134;2022-08-06T15:24:32;32.70;50.30
3300;DHT22;1662;49.310;8.134;2022-08-06T15:26:59;32.80;49.80
3300;DHT22;1662;49.310;8.134;2022-08-06T15:29:32;33.00;50.30
3300;DHT22;1662;49.310;8.134;2022-08-06T15:31:58;32.80;50.10
3300;DHT22;1662;49.310;8.134;2022-08-06T15:34:24;32.90;49.50
3300;DHT22;1662;49.310;8.134;2022-08-06T15:36:49;32.90;50.70
3300;DHT22;1662;49.310;8.134;2022-08-06T15:39:15;32.80;50.30
3300;DHT22;1662;49.310;8.134;2022-08-06T15:41:42;32.80;50.70
3300;DHT22;1662;49.310;8.134;2022-08-06T15:44:10;32.80;50.10
3300;DHT22;1662;49.310;8.134;2022-08-06T15:46:36;32.90;50.00
3300;DHT22;1662;49.310;8.134;2022-08-06T15:49:01;33.10;50.10
3300;DHT22;1662;49.310;8.134;2022-08-06T15:51:27;32.80;49.60
3300;DHT22;1662;49.310;8.134;2022-08-06T15:53:53;32.80;49.30
3300;DHT22;1662;49.310;8.134;2022-08-06T15:56:19;32.90;50.80
3300;DHT22;1662;49.310;8.134;2022-08-06T15:58:45;32.70;49.30
3300;DHT22;1662;49.310;8.134;2022-08-06T16:01:11;32.50;49.10
3300;DHT22;1662;49.310;8.134;2022-08-06T16:03:37;32.40;50.00
3300;DHT22;1662;49.310;8.134;2022-08-06T16:06:03;32.60;49.40
3300;DHT22;1662;49.310;8.134;2022-08-06T16:08:29;32.60;49.60
3300;DHT22;1662;49.310;8.134;2022-08-06T16:10:55;32.70;49.50
3300;DHT22;1662;49.310;8.134;2022-08-06T16:13:22;32.70;48.90
3300;DHT22;1662;49.310;8.134;2022-08-06T16:15:49;32.60;48.90
3300;DHT22;1662;49.310;8.134;2022-08-06T16:18:16;32.80;48.90
3300;DHT22;1662;49.310;8.134;2022-08-06T16:20:43;32.50;49.10
3300;DHT22;1662;49.310;8.134;2022-08-06T16:23:12;32.40;49.60
3300;DHT22;1662;49.310;8.134;2022-08-06T16:25:38;32.70;49.50
3300;DHT22;1662;49.310;8.134;2022-08-06T16:28:05;32.70;49.60
3300;DHT22;1662;49.310;8.134;2022-08-06T16:30:31;32.40;49.40
3300;DHT22;1662;49.310;8.134;2022-08-06T16:32:57;32.40;49.40
3300;DHT22;1662;49.310;8.134;2022-08-06T16:35:23;32.30;49.10
3300;DHT22;1662;49.310;8.134;2022-08-06T16:37:50;32.10;49.80
3300;DHT22;1662;49.310;8.134;2022-08-06T16:40:16;32.10;49.80
3300;DHT22;1662;49.310;8.134;2022-08-06T16:42:41;32.40;49.60
3300;DHT22;1662;49.310;8.134;2022-08-06T16:45:08;32.10;49.50
3300;DHT22;1662;49.310;8.134;2022-08-06T16:47:36;32.20;48.90
3300;DHT22;1662;49.310;8.134;2022-08-06T16:50:02;31.90;50.00
3300;DHT22;1662;49.310;8.134;2022-08-06T16:52:28;31.90;49.40
3300;DHT22;1662;49.310;8.134;2022-08-06T16:54:53;31.80;49.90
3300;DHT22;1662;49.310;8.134;2022-08-06T16:57:19;31.70;49.70
3300;DHT22;1662;49.310;8.134;2022-08-06T16:59:45;31.70;49.40
3300;DHT22;1662;49.310;8.134;2022-08-06T17:02:10;31.60;49.50
3300;DHT22;1662;49.310;8.134;2022-08-06T17:04:54;31.40;49.10
3300;DHT22;1662;49.310;8.134;2022-08-06T17:07:20;31.40;49.70
3300;DHT22;1662;49.310;8.134;2022-08-06T17:09:46;31.40;49.00
3300;DHT22;1662;49.310;8.134;2022-08-06T17:12:11;31.50;49.60
3300;DHT22;1662;49.310;8.134;2022-08-06T17:14:38;31.70;48.90
3300;DHT22;1662;49.310;8.134;2022-08-06T17:17:04;31.50;48.80
3300;DHT22;1662;49.310;8.134;2022-08-06T17:19:31;31.10;49.20
3300;DHT22;1662;49.310;8.134;2022-08-06T17:21:58;31.00;49.70
3300;DHT22;1662;49.310;8.134;2022-08-06T17:24:24;30.90;50.00
3300;DHT22;1662;49.310;8.134;2022-08-06T17:26:49;30.70;49.60
3300;DHT22;1662;49.310;8.134;2022-08-06T17:29:18;30.60;49.50
3300;DHT22;1662;49.310;8.134;2022-08-06T17:31:43;30.20;49.60